Time;durP1;ratioP1;P1;durP2;ratioP2;P2;SDS_P1;SDS_P2;PMS_P1;PMS_P2;Temp;Humidity;BMP_temperature;BMP_pressure;BME280_temperature;BME280_humidity;BME280_pressure;Samples;Min_cycle;Max_cycle;Signal;HPM_P1;HPM_P2
2023/07/03 00:01:14;;;;;;;12.40;3.92;;;16.30;99.90;;;;;;5071223;28;20107;-55
2023/07/03 00:03:39;;;;;;;13.52;4.10;;;16.30;99.90;;;;;;5072354;28;20039;-55
2023/07/03 00:06:05;;;;;;;16.55;4.18;;;16.30;99.90;;;;;;5072476;28;20041;-56
2023/07/03 00:08:31;;;;;;;18.00;4.78;;;16.30;99.90;;;;;;5072308;28;20063;-55
2023/07/03 00:11:01;;;;;;;14.10;4.25;;;16.30;99.90;;;;;;5072461;28;20398;-56
2023/07/03 00:13:26;;;;;;;13.15;4.47;;;16.30;99.90;;;;;;5072134;28;20517;-54
2023/07/03 00:15:58;;;;;;;13.77;4.00;;;16.30;99.90;;;;;;5072270;28;20036;-55
2023/07/03 00:18:24;;;;;;;13.85;4.07;;;16.30;99.90;;;;;;5071947;28;20032;-56
2023/07/03 00:20:54;;;;;;;19.75;5.57;;;16.30;99.90;;;;;;5072501;28;20040;-55
2023/07/03 00:23:24;;;;;;;13.48;4.30;;;16.30;99.90;;;;;;5072184;28;20406;-55
2023/07/03 00:25:50;;;;;;;14.65;4.10;;;16.20;99.90;;;;;;5058537;28;20032;-55
2023/07/03 00:28:15;;;;;;;15.90;3.95;;;16.30;99.90;;;;;;5072395;28;20040;-55
2023/07/03 00:30:42;;;;;;;10.82;4.10;;;16.30;99.90;;;;;;5071948;28;20048;-55
2023/07/03 00:33:07;;;;;;;14.80;3.92;;;16.30;99.90;;;;;;5071942;28;20403;-55
2023/07/03 00:35:33;;;;;;;12.20;4.68;;;16.30;99.90;;;;;;5071695;28;20055;-55
2023/07/03 00:37:58;;;;;;;11.70;4.20;;;16.30;99.90;;;;;;5070682;28;20037;-56
2023/07/03 00:40:24;;;;;;;11.57;3.90;;;16.30;99.90;;;;;;5072001;28;20085;-55
2023/07/03 00:42:52;;;;;;;14.27;4.40;;;16.30;99.90;;;;;;5072158;28;20044;-55
2023/07/03 00:45:19;;;;;;;13.10;4.30;;;16.30;99.90;;;;;;5072051;28;20029;-55
2023/07/03 00:47:45;;;;;;;13.45;3.78;;;16.20;99.90;;;;;;5072105;28;20281;-55
2023/07/03 00:50:11;;;;;;;12.65;4.00;;;16.30;99.90;;;;;;5071972;28;20048;-55
2023/07/03 00:52:39;;;;;;;13.07;4.30;;;16.30;99.90;;;;;;5071555;28;20041;-55
2023/07/03 00:55:06;;;;;;;14.23;4.22;;;16.30;99.90;;;;;;5072007;28;20063;-56
2023/07/03 00:57:32;;;;;;;14.48;4.00;;;16.30;99.90;;;;;;5051580;28;20039;-54
2023/07/03 00:59:59;;;;;;;12.60;4.03;;;16.30;99.90;;;;;;5070160;28;20032;-55
2023/07/03 01:02:34;;;;;;;18.95;4.35;;;16.30;99.90;;;;;;5070318;28;20455;-55
2023/07/03 01:05:17;;;;;;;14.50;4.32;;;16.30;99.90;;;;;;5071438;28;20487;-55
2023/07/03 01:07:43;;;;;;;17.75;4.15;;;16.30;99.90;;;;;;5071664;28;20107;-55
2023/07/03 01:10:14;;;;;;;14.23;4.25;;;16.20;99.90;;;;;;5070447;28;20051;-55
2023/07/03 01:12:43;;;;;;;13.60;3.55;;;16.30;99.90;;;;;;5070381;28;20394;-55
2023/07/03 01:15:12;;;;;;;17.17;3.70;;;16.30;99.90;;;;;;5071469;28;20368;-55
2023/07/03 01:17:40;;;;;;;;;;;16.30;99.90;;;;;;5072120;28;20106;-55
2023/07/03 01:20:12;;;;;;;13.35;3.67;;;16.30;99.90;;;;;;5071637;28;19966;-55
2023/07/03 01:22:48;;;;;;;13.27;4.20;;;16.30;99.90;;;;;;5071539;28;20498;-55
2023/07/03 01:25:19;;;;;;;15.65;4.22;;;16.30;99.90;;;;;;5070220;28;20482;-55
2023/07/03 01:27:47;;;;;;;11.25;3.95;;;16.30;99.90;;;;;;5071416;28;20508;-54
2023/07/03 01:30:16;;;;;;;12.27;3.80;;;16.30;99.90;;;;;;5062577;28;20090;-55
2023/07/03 01:32:45;;;;;;;11.90;3.60;;;16.30;99.90;;;;;;5071075;28;20040;-55
2023/07/03 01:35:11;;;;;;;;;;;16.30;99.90;;;;;;5062973;28;20122;-56
2023/07/03 01:37:41;;;;;;;12.60;3.67;;;16.30;99.90;;;;;;5066509;28;19921;-55
2023/07/03 01:40:10;;;;;;;11.15;3.47;;;16.20;99.90;;;;;;5057192;28;20048;-55
2023/07/03 01:42:38;;;;;;;;;;;16.20;99.90;;;;;;5070628;28;20501;-55
2023/07/03 01:45:04;;;;;;;13.30;3.42;;;16.20;99.90;;;;;;5071277;28;19942;-55
2023/07/03 01:47:30;;;;;;;15.00;4.38;;;16.20;99.90;;;;;;5066223;28;20446;-55
2023/07/03 01:49:56;;;;;;;15.50;3.60;;;16.20;99.90;;;;;;5062208;28;20116;-54
2023/07/03 01:52:32;;;;;;;15.63;3.70;;;16.20;99.90;;;;;;5071081;28;20047;-56
2023/07/03 01:55:07;;;;;;;15.98;3.70;;;16.20;99.90;;;;;;5071001;28;20032;-55
2023/07/03 01:57:56;;;;;;;14.52;3.65;;;16.10;99.90;;;;;;5071563;28;20540;-55
2023/07/03 02:00:30;;;;;;;10.85;3.50;;;16.10;99.90;;;;;;5071463;28;20481;-55
2023/07/03 02:03:00;;;;;;;10.23;3.75;;;16.10;99.90;;;;;;5057416;28;20047;-55
2023/07/03 02:05:29;;;;;;;10.95;3.00;;;16.10;99.90;;;;;;5057507;28;20057;-55
2023/07/03 02:07:59;;;;;;;9.32;3.08;;;16.10;99.90;;;;;;5069588;28;20044;-55
2023/07/03 02:10:25;;;;;;;13.68;3.20;;;16.00;99.90;;;;;;5071193;28;20036;-55
2023/07/03 02:12:51;;;;;;;13.02;3.10;;;16.00;99.90;;;;;;5072662;28;20123;-54
2023/07/03 02:15:17;;;;;;;10.30;3.28;;;16.00;99.90;;;;;;5074625;28;20115;-55
2023/07/03 02:17:43;;;;;;;11.77;3.97;;;16.00;99.90;;;;;;5074480;28;20029;-55
2023/07/03 02:20:14;;;;;;;12.35;4.07;;;15.90;99.90;;;;;;5074410;28;20037;-55
2023/07/03 02:22:43;;;;;;;16.67;3.13;;;15.90;99.90;;;;;;5073517;28;20433;-55
2023/07/03 02:25:09;;;;;;;;;;;15.80;99.90;;;;;;5074953;28;20079;-56
2023/07/03 02:27:35;;;;;;;14.32;3.45;;;15.70;99.90;;;;;;5074642;28;19924;-56
2023/07/03 02:30:01;;;;;;;13.98;3.20;;;15.70;99.90;;;;;;5074288;28;20395;-55
2023/07/03 02:32:44;;;;;;;13.07;2.72;;;15.60;99.90;;;;;;5074253;28;20040;-55
2023/07/03 02:35:11;;;;;;;12.80;3.22;;;15.60;99.90;;;;;;5074202;28;20060;-56
2023/07/03 02:37:36;;;;;;;11.20;2.50;;;15.60;99.90;;;;;;5074253;28;20364;-55
2023/07/03 02:40:08;;;;;;;13.10;2.97;;;15.50;99.90;;;;;;5060108;28;20037;-55
2023/07/03 02:42:34;;;;;;;9.93;2.67;;;15.50;99.90;;;;;;5074096;28;20044;-54
2023/07/03 02:45:00;;;;;;;10.75;3.17;;;15.40;99.90;;;;;;5073910;28;20120;-55
2023/07/03 02:47:25;;;;;;;10.85;2.30;;;15.40;99.90;;;;;;5074143;28;20044;-53
2023/07/03 02:49:51;;;;;;;6.28;2.28;;;15.40;99.90;;;;;;5074087;28;20040;-55
2023/07/03 02:52:17;;;;;;;9.80;2.72;;;15.40;99.90;;;;;;5073858;28;20040;-55
2023/07/03 02:54:42;;;;;;;11.65;2.65;;;15.40;99.90;;;;;;5073574;28;20544;-55
2023/07/03 02:57:08;;;;;;;9.50;2.05;;;15.30;99.90;;;;;;5074165;28;20042;-55
2023/07/03 02:59:34;;;;;;;10.80;2.65;;;15.30;99.90;;;;;;5073951;28;20142;-55
2023/07/03 03:01:59;;;;;;;7.05;1.95;;;15.20;99.90;;;;;;5074116;28;20040;-55
2023/07/03 03:04:26;;;;;;;8.55;2.63;;;15.20;99.90;;;;;;5074161;28;20051;-55
2023/07/03 03:06:51;;;;;;;10.98;2.42;;;15.20;99.90;;;;;;5074455;28;20194;-55
2023/07/03 03:09:17;;;;;;;9.73;2.53;;;15.20;99.90;;;;;;5073767;28;20036;-55
2023/07/03 03:11:42;;;;;;;14.90;3.08;;;15.20;99.90;;;;;;5073803;28;20364;-56
2023/07/03 03:14:08;;;;;;;7.75;2.20;;;15.10;99.90;;;;;;5073331;28;20418;-55
2023/07/03 03:16:34;;;;;;;9.82;2.15;;;15.10;99.90;;;;;;5073597;28;20028;-55
2023/07/03 03:19:01;;;;;;;11.68;2.67;;;15.10;99.90;;;;;;5073428;28;20495;-55
2023/07/03 03:21:26;;;;;;;10.48;2.50;;;15.00;99.90;;;;;;5073597;28;20040;-55
2023/07/03 03:23:52;;;;;;;8.07;2.30;;;14.90;99.90;;;;;;5073534;28;20451;-55
2023/07/03 03:26:18;;;;;;;14.77;2.40;;;14.90;99.90;;;;;;5073097;28;20037;-55
2023/07/03 03:28:43;;;;;;;14.98;3.20;;;14.90;99.90;;;;;;5073113;28;20064;-53
2023/07/03 03:31:09;;;;;;;13.05;2.22;;;14.80;99.90;;;;;;5073304;28;20124;-55
2023/07/03 03:33:34;;;;;;;9.48;2.10;;;14.80;99.90;;;;;;5072867;28;20043;-55
2023/07/03 03:36:00;;;;;;;10.05;2.17;;;14.80;99.90;;;;;;5072837;28;20040;-55
2023/07/03 03:38:26;;;;;;;9.10;2.05;;;14.70;99.90;;;;;;5070039;28;20045;-55
2023/07/03 03:40:56;;;;;;;7.88;2.20;;;14.60;99.90;;;;;;5061601;28;20041;-56
2023/07/03 03:43:22;;;;;;;10.55;2.35;;;14.70;99.90;;;;;;5072708;28;20044;-55
2023/07/03 03:45:59;;;;;;;11.23;2.63;;;14.70;99.90;;;;;;5073195;28;20386;-56
2023/07/03 03:48:26;;;;;;;8.88;1.83;;;14.60;99.90;;;;;;5072700;28;20072;-55
2023/07/03 03:50:52;;;;;;;11.68;2.00;;;14.60;99.90;;;;;;5072814;28;20032;-55
2023/07/03 03:53:17;;;;;;;9.32;2.10;;;14.60;99.90;;;;;;5072874;28;20044;-55
2023/07/03 03:55:43;;;;;;;13.57;2.90;;;14.60;99.90;;;;;;5072545;28;20517;-55
2023/07/03 03:58:10;;;;;;;22.33;4.53;;;14.50;99.90;;;;;;5072868;28;20379;-55
2023/07/03 04:00:36;;;;;;;10.73;2.75;;;14.50;99.90;;;;;;5072677;28;20036;-55
2023/07/03 04:03:02;;;;;;;8.15;1.95;;;14.60;99.90;;;;;;5072587;28;20048;-55
2023/07/03 04:05:28;;;;;;;13.05;2.63;;;14.50;99.90;;;;;;5072448;28;20115;-55
2023/07/03 04:07:53;;;;;;;8.43;1.90;;;14.50;99.90;;;;;;5072333;28;20040;-54
2023/07/03 04:10:19;;;;;;;8.98;2.10;;;14.50;99.90;;;;;;5072112;28;20119;-56
2023/07/03 04:12:44;;;;;;;10.65;2.38;;;14.50;99.90;;;;;;5072797;28;20044;-55
2023/07/03 04:15:10;;;;;;;7.93;2.10;;;14.50;99.90;;;;;;5072137;28;20433;-55
2023/07/03 04:17:36;;;;;;;13.07;3.25;;;14.50;99.90;;;;;;5070828;28;20044;-54
2023/07/03 04:20:07;;;;;;;12.82;2.25;;;14.50;99.90;;;;;;5072131;28;20158;-55
2023/07/03 04:22:32;;;;;;;9.18;2.33;;;14.50;99.90;;;;;;5072188;28;20432;-55
2023/07/03 04:24:58;;;;;;;10.65;2.33;;;14.40;99.90;;;;;;5072028;28;20068;-55
2023/07/03 04:27:24;;;;;;;10.02;2.50;;;14.50;99.90;;;;;;5072079;28;20037;-55
2023/07/03 04:29:49;;;;;;;7.47;1.98;;;14.60;99.90;;;;;;5072348;28;20052;-55
2023/07/03 04:32:15;;;;;;;14.40;2.42;;;14.70;99.90;;;;;;5072226;28;20523;-55
2023/07/03 04:34:41;;;;;;;11.50;2.30;;;14.70;99.90;;;;;;5071614;28;20056;-55
2023/07/03 04:37:08;;;;;;;9.93;2.20;;;14.70;99.90;;;;;;5071998;28;20397;-55
2023/07/03 04:39:34;;;;;;;10.35;2.65;;;14.80;99.90;;;;;;5060418;28;20059;-55
2023/07/03 04:42:00;;;;;;;12.50;2.97;;;14.80;99.90;;;;;;5069810;28;20036;-55
2023/07/03 04:44:27;;;;;;;8.27;2.15;;;14.70;99.90;;;;;;5071805;28;20505;-55
2023/07/03 04:46:56;;;;;;;9.80;2.35;;;14.70;99.90;;;;;;5071952;28;20041;-55
2023/07/03 04:49:29;;;;;;;8.18;2.33;;;14.70;99.90;;;;;;5072053;28;20040;-55
2023/07/03 04:51:55;;;;;;;11.98;2.13;;;14.90;99.90;;;;;;5071610;28;20075;-55
2023/07/03 04:54:20;;;;;;;14.88;3.55;;;14.90;99.90;;;;;;5071735;28;20084;-55
2023/07/03 04:56:48;;;;;;;13.95;2.72;;;15.00;99.90;;;;;;5072115;28;20032;-54
2023/07/03 04:59:14;;;;;;;13.52;2.38;;;15.10;99.90;;;;;;5070872;28;20519;-55
2023/07/03 05:01:43;;;;;;;9.55;2.42;;;15.20;99.90;;;;;;5072376;28;20044;-55
2023/07/03 05:04:12;;;;;;;11.93;2.00;;;15.30;99.90;;;;;;5070540;28;20475;-55
2023/07/03 05:06:39;;;;;;;17.48;2.40;;;15.30;99.90;;;;;;5071555;28;20037;-55
2023/07/03 05:09:05;;;;;;;7.70;2.10;;;15.50;99.90;;;;;;5071693;28;20078;-55
2023/07/03 05:11:32;;;;;;;14.68;2.45;;;15.50;99.90;;;;;;5071735;28;20040;-55
2023/07/03 05:13:58;;;;;;;14.45;2.55;;;15.60;99.90;;;;;;5071453;28;20051;-54
2023/07/03 05:16:24;;;;;;;16.45;2.63;;;15.70;99.90;;;;;;5071665;28;20398;-55
2023/07/03 05:18:50;;;;;;;11.40;2.38;;;15.80;99.90;;;;;;5071588;28;20036;-55
2023/07/03 05:21:16;;;;;;;9.93;2.30;;;15.80;99.90;;;;;;5072052;28;20051;-55
2023/07/03 05:23:42;;;;;;;11.93;2.47;;;16.00;99.90;;;;;;5072030;28;20119;-55
2023/07/03 05:26:07;;;;;;;13.30;2.45;;;16.10;99.90;;;;;;5071327;28;20043;-55
2023/07/03 05:28:34;;;;;;;12.68;2.33;;;16.10;99.90;;;;;;5071471;28;20037;-55
2023/07/03 05:30:59;;;;;;;9.25;2.95;;;16.10;99.90;;;;;;5071243;28;20117;-55
2023/07/03 05:33:26;;;;;;;9.57;2.28;;;16.10;99.90;;;;;;5071621;28;20033;-55
2023/07/03 05:35:52;;;;;;;16.95;2.53;;;16.10;99.90;;;;;;5070770;28;20064;-54
2023/07/03 05:38:19;;;;;;;12.68;2.50;;;16.10;99.90;;;;;;5069984;28;20044;-55
2023/07/03 05:40:44;;;;;;;11.60;3.10;;;16.10;99.90;;;;;;5059107;28;20474;-53
2023/07/03 05:43:11;;;;;;;14.18;2.30;;;16.00;99.90;;;;;;5071486;28;20037;-55
2023/07/03 05:45:36;;;;;;;11.73;2.15;;;15.90;99.90;;;;;;5071115;28;20033;-55
2023/07/03 05:48:02;;;;;;;8.77;1.95;;;15.80;99.90;;;;;;5073348;28;20045;-55
2023/07/03 05:50:28;;;;;;;13.10;3.08;;;15.70;99.90;;;;;;5074848;28;20433;-55
2023/07/03 05:52:54;;;;;;;9.65;2.30;;;15.70;99.90;;;;;;5075318;28;20136;-55
2023/07/03 05:55:20;;;;;;;11.65;2.88;;;15.70;99.90;;;;;;5075060;28;20047;-55
2023/07/03 05:57:46;;;;;;;7.32;2.22;;;15.60;99.90;;;;;;5074039;28;20033;-54
2023/07/03 06:00:15;;;;;;;9.48;2.20;;;15.60;99.90;;;;;;5074898;28;20389;-54
2023/07/03 06:02:46;;;;;;;10.73;2.30;;;15.60;99.90;;;;;;5075177;28;20041;-55
2023/07/03 06:05:13;;;;;;;10.05;2.10;;;15.70;99.90;;;;;;5074744;28;20063;-55
2023/07/03 06:07:39;;;;;;;14.23;3.25;;;15.90;99.90;;;;;;5075281;28;20040;-55
2023/07/03 06:10:07;;;;;;;16.30;2.55;;;16.10;99.90;;;;;;5074875;28;20040;-55
2023/07/03 06:12:32;;;;;;;9.75;2.28;;;16.30;99.90;;;;;;5074923;28;20097;-56
2023/07/03 06:15:00;;;;;;;20.88;2.95;;;16.60;99.90;;;;;;5074806;28;20111;-56
2023/07/03 06:17:27;;;;;;;13.63;2.80;;;16.60;99.90;;;;;;5074649;28;20041;-55
2023/07/03 06:19:53;;;;;;;15.95;3.30;;;16.70;99.90;;;;;;5074585;28;20033;-55
2023/07/03 06:22:19;;;;;;;12.85;2.67;;;16.90;99.90;;;;;;5074594;28;20107;-54
2023/07/03 06:24:45;;;;;;;12.85;2.65;;;17.10;99.90;;;;;;5074518;28;20514;-54
2023/07/03 06:27:12;;;;;;;16.85;2.95;;;17.10;99.90;;;;;;5060753;28;20112;-56
2023/07/03 06:29:38;;;;;;;16.42;2.45;;;17.30;99.90;;;;;;5074509;28;20028;-55
2023/07/03 06:32:05;;;;;;;11.88;2.72;;;17.20;99.90;;;;;;5074366;28;20039;-55
2023/07/03 06:34:30;;;;;;;13.35;2.35;;;17.20;99.90;;;;;;5074075;28;20052;-55
2023/07/03 06:36:56;;;;;;;14.05;2.30;;;17.20;99.90;;;;;;5073020;28;20113;-55
2023/07/03 06:39:22;;;;;;;10.90;2.22;;;17.00;99.90;;;;;;5073682;28;20216;-55
2023/07/03 06:41:48;;;;;;;15.02;2.70;;;17.00;99.90;;;;;;5073956;28;20390;-55
2023/07/03 06:44:15;;;;;;;14.43;2.17;;;16.90;99.90;;;;;;5074260;28;20051;-55
2023/07/03 06:46:42;;;;;;;10.15;2.30;;;16.80;99.90;;;;;;5074270;28;20443;-56
2023/07/03 06:49:08;;;;;;;5.82;1.90;;;16.80;99.90;;;;;;5074244;28;20119;-56
2023/07/03 06:51:35;;;;;;;14.43;2.47;;;16.70;99.90;;;;;;5074373;28;20164;-54
2023/07/03 06:54:00;;;;;;;14.40;2.67;;;16.40;99.90;;;;;;5074521;28;20040;-55
2023/07/03 06:56:27;;;;;;;8.40;2.05;;;16.10;99.90;;;;;;5073920;28;20039;-56
2023/07/03 06:58:53;;;;;;;9.75;2.47;;;16.00;99.90;;;;;;5073304;28;20124;-55
2023/07/03 07:01:21;;;;;;;14.18;2.42;;;15.80;99.90;;;;;;5073794;28;20111;-55
2023/07/03 07:03:47;;;;;;;10.93;2.15;;;15.70;99.90;;;;;;5073826;28;20102;-55
2023/07/03 07:06:22;;;;;;;9.00;2.05;;;15.60;99.90;;;;;;5073911;28;20040;-55
2023/07/03 07:08:48;;;;;;;9.43;2.25;;;15.50;99.90;;;;;;5073820;28;20036;-55
2023/07/03 07:11:17;;;;;;;8.02;1.63;;;15.50;99.90;;;;;;5073649;28;20028;-55
2023/07/03 07:13:45;;;;;;;7.30;1.65;;;15.50;99.90;;;;;;5073669;28;20044;-55
2023/07/03 07:16:17;;;;;;;11.18;2.05;;;15.40;99.90;;;;;;5073546;28;20090;-55
2023/07/03 07:18:45;;;;;;;9.00;2.50;;;15.50;99.90;;;;;;5073321;28;20119;-54
2023/07/03 07:21:11;;;;;;;11.60;2.40;;;15.50;99.90;;;;;;5073512;28;20037;-55
2023/07/03 07:23:36;;;;;;;9.60;2.60;;;15.60;99.90;;;;;;5073618;28;20048;-55
2023/07/03 07:26:02;;;;;;;8.80;2.00;;;15.80;99.90;;;;;;5073162;28;20044;-56
2023/07/03 07:28:28;;;;;;;11.80;2.20;;;15.80;99.90;;;;;;5073075;28;20033;-55
2023/07/03 07:30:54;;;;;;;8.85;1.98;;;15.90;99.90;;;;;;5073520;28;20440;-55
2023/07/03 07:33:22;;;;;;;8.05;1.95;;;15.80;99.90;;;;;;5072870;28;20495;-55
2023/07/03 07:35:48;;;;;;;14.85;2.15;;;15.80;99.90;;;;;;5072985;28;20127;-55
2023/07/03 07:38:14;;;;;;;9.80;2.20;;;15.90;99.90;;;;;;5072417;28;20079;-55
2023/07/03 07:40:39;;;;;;;15.55;3.00;;;15.80;99.90;;;;;;5060227;28;20060;-55
2023/07/03 07:43:06;;;;;;;10.73;2.47;;;15.90;99.90;;;;;;5073161;28;20127;-55
2023/07/03 07:45:32;;;;;;;11.93;2.00;;;15.90;99.90;;;;;;5072999;28;20036;-55
2023/07/03 07:47:58;;;;;;;11.23;2.30;;;16.00;99.90;;;;;;5072969;28;20119;-56
2023/07/03 07:50:24;;;;;;;8.45;1.80;;;16.00;99.90;;;;;;5072680;28;20036;-55
2023/07/03 07:52:50;;;;;;;8.13;1.85;;;16.00;99.90;;;;;;5072810;28;20387;-56
2023/07/03 07:55:17;;;;;;;9.02;2.35;;;16.10;99.90;;;;;;5073134;28;20325;-55
2023/07/03 07:57:43;;;;;;;8.65;1.77;;;16.10;99.90;;;;;;5059679;28;20048;-55
2023/07/03 08:00:09;;;;;;;10.48;1.92;;;16.30;99.90;;;;;;5072888;28;20372;-55
2023/07/03 08:02:35;;;;;;;4.72;1.25;;;16.40;99.90;;;;;;5072642;28;20441;-56
2023/07/03 08:05:01;;;;;;;8.95;1.83;;;16.40;99.90;;;;;;5072448;28;20032;-55
2023/07/03 08:07:27;;;;;;;5.72;1.38;;;16.50;99.90;;;;;;5072609;28;20045;-55
2023/07/03 08:09:53;;;;;;;13.52;2.88;;;16.80;99.90;;;;;;5071657;28;20398;-55
2023/07/03 08:12:19;;;;;;;7.05;1.70;;;17.20;99.90;;;;;;5072488;28;20045;-55
2023/07/03 08:14:44;;;;;;;14.52;2.08;;;17.50;99.90;;;;;;5072010;28;20044;-55
2023/07/03 08:17:10;;;;;;;6.80;1.67;;;17.40;99.90;;;;;;5072102;28;20040;-55
2023/07/03 08:19:36;;;;;;;7.78;1.52;;;17.70;99.90;;;;;;5072280;28;20117;-55
2023/07/03 08:22:01;;;;;;;5.15;1.40;;;17.80;99.90;;;;;;5072449;28;20365;-55
2023/07/03 08:24:27;;;;;;;10.70;2.92;;;17.80;99.90;;;;;;5072286;28;20119;-55
2023/07/03 08:26:54;;;;;;;9.27;1.70;;;17.90;99.90;;;;;;5072034;28;20488;-55
2023/07/03 08:29:20;;;;;;;8.15;1.52;;;18.10;99.90;;;;;;5072229;28;20033;-55
2023/07/03 08:31:45;;;;;;;5.57;1.80;;;18.30;99.90;;;;;;5071691;28;20501;-55
2023/07/03 08:34:11;;;;;;;3.47;1.02;;;18.20;99.90;;;;;;5072015;28;20048;-55
2023/07/03 08:36:37;;;;;;;4.47;1.10;;;18.40;99.90;;;;;;5072138;28;20040;-56
2023/07/03 08:39:04;;;;;;;4.80;1.30;;;18.60;99.90;;;;;;5064554;28;20137;-55
2023/07/03 08:41:34;;;;;;;5.45;1.08;;;18.70;99.90;;;;;;5066030;28;20043;-54
2023/07/03 08:44:01;;;;;;;4.30;1.17;;;18.70;99.90;;;;;;5072012;28;20032;-54
2023/07/03 08:46:31;;;;;;;6.20;1.38;;;19.00;99.90;;;;;;5071949;28;20482;-55
2023/07/03 08:49:03;;;;;;;5.80;1.75;;;19.20;99.90;;;;;;5071618;28;20064;-55
2023/07/03 08:51:32;;;;;;;9.35;1.83;;;19.30;99.90;;;;;;5071615;28;20079;-55
2023/07/03 08:54:20;;;;;;;6.57;1.27;;;19.70;99.90;;;;;;5071501;28;20063;-55
2023/07/03 08:56:47;;;;;;;6.28;1.00;;;19.70;99.90;;;;;;5071707;28;20490;-55
2023/07/03 08:59:13;;;;;;;6.55;1.63;;;19.40;99.90;;;;;;5071619;28;20390;-55
2023/07/03 09:01:54;;;;;;;5.78;1.65;;;19.10;99.90;;;;;;5071948;28;20111;-55
2023/07/03 09:04:41;;;;;;;6.47;1.40;;;18.80;99.90;;;;;;5071472;28;20041;-55
2023/07/03 09:07:15;;;;;;;6.60;1.63;;;18.50;99.90;;;;;;5071646;28;20040;-55
2023/07/03 09:10:00;;;;;;;5.03;1.02;;;17.90;99.90;;;;;;5071597;28;20048;-56
2023/07/03 09:12:38;;;;;;;3.47;1.25;;;17.50;99.90;;;;;;5060108;28;20052;-55
2023/07/03 09:15:25;;;;;;;5.97;1.38;;;17.10;99.90;;;;;;5071692;28;20044;-56
2023/07/03 09:17:53;;;;;;;7.18;1.58;;;16.90;99.90;;;;;;5071562;28;20036;-55
2023/07/03 09:20:22;;;;;;;6.35;1.33;;;16.80;99.90;;;;;;5071918;28;20041;-56
2023/07/03 09:23:08;;;;;;;5.32;1.35;;;16.70;99.90;;;;;;5075280;28;20044;-56
2023/07/03 09:26:01;;;;;;;11.13;1.92;;;16.80;99.90;;;;;;5076134;28;20101;-55
2023/07/03 09:28:28;;;;;;;6.25;1.48;;;16.80;99.90;;;;;;5033218;28;20068;-55
2023/07/03 09:30:54;;;;;;;6.43;1.70;;;16.80;99.90;;;;;;5033304;28;20046;-56
2023/07/03 09:33:20;;;;;;;5.53;1.88;;;16.80;99.90;;;;;;5033143;28;20373;-56
2023/07/03 09:35:47;;;;;;;9.00;1.90;;;16.80;99.90;;;;;;5016320;28;20057;-55
2023/07/03 09:38:23;;;;;;;9.68;1.70;;;16.90;99.90;;;;;;5033022;28;20126;-55
2023/07/03 09:40:52;;;;;;;6.38;1.65;;;16.90;99.90;;;;;;5033172;28;20049;-54
2023/07/03 09:43:25;;;;;;;7.40;1.70;;;16.90;99.90;;;;;;5032837;28;20041;-55
2023/07/03 09:46:06;;;;;;;9.13;1.73;;;17.00;99.90;;;;;;5033122;28;20107;-55
2023/07/03 09:48:34;;;;;;;9.07;1.58;;;17.00;99.90;;;;;;5032959;28;20504;-55
2023/07/03 09:51:03;;;;;;;10.10;1.92;;;17.00;99.90;;;;;;5032904;28;20045;-56
2023/07/03 09:53:30;;;;;;;5.53;1.50;;;17.00;99.90;;;;;;5032756;28;20566;-55
2023/07/03 09:55:58;;;;;;;10.20;2.20;;;17.00;99.90;;;;;;5032748;28;20113;-55
2023/07/03 09:58:26;;;;;;;5.82;1.55;;;17.00;99.90;;;;;;5032751;28;20052;-55
2023/07/03 10:00:55;;;;;;;5.60;1.30;;;17.10;99.90;;;;;;5032756;28;20033;-55
2023/07/03 10:03:29;;;;;;;3.00;1.00;;;17.00;99.90;;;;;;5032906;28;20041;-55
2023/07/03 10:05:57;;;;;;;2.40;1.02;;;16.80;99.90;;;;;;5053601;28;20055;-55
2023/07/03 10:08:26;;;;;;;5.47;1.08;;;16.70;99.90;;;;;;5074765;28;20068;-56
2023/07/03 10:10:53;;;;;;;;;;;16.60;99.90;;;;;;5074932;28;20101;-55
2023/07/03 10:13:31;;;;;;;6.50;1.67;;;16.50;99.90;;;;;;5074483;28;20437;-54
2023/07/03 10:15:58;;;;;;;3.78;1.10;;;16.40;99.90;;;;;;5074753;28;20032;-55
2023/07/03 10:18:37;;;;;;;3.38;0.95;;;16.30;99.90;;;;;;5074578;28;20487;-55
2023/07/03 10:21:06;;;;;;;3.67;1.65;;;16.20;99.90;;;;;;5074462;28;20076;-55
2023/07/03 10:23:36;;;;;;;5.88;1.17;;;16.00;99.90;;;;;;5074334;28;20391;-55
2023/07/03 10:26:10;;;;;;;6.43;1.23;;;15.90;99.90;;;;;;5074264;28;20040;-55
2023/07/03 10:28:45;;;;;;;4.95;1.38;;;15.90;99.90;;;;;;5074296;28;20045;-56
2023/07/03 10:31:21;;;;;;;3.47;1.23;;;15.90;99.90;;;;;;5074447;28;20101;-55
2023/07/03 10:33:48;;;;;;;3.75;1.20;;;16.10;99.90;;;;;;5073532;28;20555;-55
2023/07/03 10:36:22;;;;;;;7.93;1.37;;;16.50;99.90;;;;;;5074163;28;20052;-56
2023/07/03 10:39:13;;;;;;;6.72;1.40;;;16.80;99.90;;;;;;5074206;28;20036;-56
2023/07/03 10:41:49;;;;;;;6.70;1.88;;;16.90;99.90;;;;;;5074261;28;20036;-55
2023/07/03 10:44:29;;;;;;;4.63;1.50;;;16.90;99.90;;;;;;5074301;28;20047;-55
2023/07/03 10:47:04;;;;;;;5.28;1.58;;;16.90;99.90;;;;;;5074105;28;20040;-55
2023/07/03 10:49:33;;;;;;;6.63;1.10;;;16.80;99.90;;;;;;5074055;28;20123;-55
2023/07/03 10:52:17;;;;;;;;;;;16.60;99.90;;;;;;5074509;28;20076;-55
2023/07/03 10:55:05;;;;;;;6.30;1.00;;;16.50;99.90;;;;;;5073914;28;20386;-56
2023/07/03 10:57:43;;;;;;;10.57;1.40;;;16.30;99.90;;;;;;5073706;28;20032;-56
2023/07/03 11:00:15;;;;;;;5.32;1.65;;;16.30;99.90;;;;;;5074131;28;20044;-55
2023/07/03 11:02:51;;;;;;;5.70;1.35;;;16.30;99.90;;;;;;5073800;28;20478;-55
2023/07/03 11:05:28;;;;;;;6.20;1.23;;;16.40;99.90;;;;;;5072565;28;20040;-55
2023/07/03 11:08:15;;;;;;;4.80;1.00;;;16.80;99.90;;;;;;5061053;28;20434;-56
2023/07/03 11:10:53;;;;;;;6.22;1.80;;;17.10;99.90;;;;;;5073667;28;20157;-55
2023/07/03 11:13:56;;;;;;;7.22;1.70;;;17.30;99.90;;;;;;5073580;28;20041;-55
2023/07/03 11:16:29;;;;;;;7.13;2.35;;;17.50;99.90;;;;;;5015240;28;20111;-56
2023/07/03 11:19:14;;;;;;;10.82;2.47;;;17.90;99.90;;;;;;5031341;28;20072;-55
2023/07/03 11:21:47;;;;;;;5.00;1.55;;;18.30;99.90;;;;;;5031336;28;20045;-55
2023/07/03 11:24:25;;;;;;;9.50;1.80;;;18.40;99.90;;;;;;5031293;28;20657;-55
2023/07/03 11:27:14;;;;;;;8.07;2.05;;;18.20;99.90;;;;;;5031138;28;20056;-55
2023/07/03 11:29:41;;;;;;;5.53;1.43;;;18.20;99.90;;;;;;4979455;28;20046;-55
2023/07/03 11:32:08;;;;;;;8.00;1.33;;;18.00;99.90;;;;;;4991579;28;20289;-55
2023/07/03 11:34:35;;;;;;;3.83;1.02;;;17.90;99.90;;;;;;4991026;28;20064;-55
2023/07/03 11:37:01;;;;;;;3.85;1.00;;;17.90;99.90;;;;;;4991645;28;20050;-54
2023/07/03 11:39:33;;;;;;;10.55;2.13;;;17.90;99.90;;;;;;4991401;28;20055;-55
2023/07/03 11:42:01;;;;;;;5.53;0.90;;;17.80;99.90;;;;;;4991312;28;20046;-55
2023/07/03 11:44:27;;;;;;;4.68;1.27;;;17.80;99.90;;;;;;4990560;28;20117;-55
2023/07/03 11:47:04;;;;;;;5.15;1.20;;;17.60;99.90;;;;;;4991081;28;20517;-56
2023/07/03 11:49:36;;;;;;;6.13;1.60;;;17.60;99.90;;;;;;4991480;28;20117;-56
2023/07/03 11:52:04;;;;;;;4.97;1.17;;;17.50;99.90;;;;;;4981888;28;20050;-56
2023/07/03 11:54:36;;;;;;;6.30;1.20;;;17.40;99.90;;;;;;5049983;28;20044;-56
2023/07/03 11:57:08;;;;;;;4.85;0.93;;;17.40;99.90;;;;;;5050365;28;20053;-55
2023/07/03 11:59:39;;;;;;;7.07;1.20;;;17.40;99.90;;;;;;5050613;28;20104;-56
2023/07/03 12:02:11;;;;;;;5.75;1.50;;;17.70;99.90;;;;;;5033572;28;20040;-56
2023/07/03 12:04:42;;;;;;;4.15;1.27;;;17.80;99.90;;;;;;5050290;28;20037;-55
2023/07/03 12:07:09;;;;;;;4.68;1.60;;;17.80;99.90;;;;;;5065104;28;20048;-54
2023/07/03 12:09:34;;;;;;;4.50;1.10;;;17.80;99.90;;;;;;5072199;28;20040;-56
2023/07/03 12:12:00;;;;;;;6.68;1.40;;;17.80;99.90;;;;;;5072725;28;20041;-56
2023/07/03 12:14:54;;;;;;;5.82;1.20;;;17.80;99.90;;;;;;5072174;28;20047;-55
2023/07/03 12:17:33;;;;;;;5.57;1.55;;;17.80;99.90;;;;;;5072217;28;20043;-56
2023/07/03 12:20:06;;;;;;;8.27;1.30;;;17.80;99.90;;;;;;5058513;28;20032;-55
2023/07/03 12:22:46;;;;;;;5.20;1.27;;;17.90;99.90;;;;;;5072132;28;20378;-55
2023/07/03 12:25:20;;;;;;;8.07;1.55;;;17.90;99.90;;;;;;5072107;28;20145;-56
2023/07/03 12:27:47;;;;;;;9.82;1.20;;;17.90;99.90;;;;;;5072196;28;20040;-56
2023/07/03 12:30:21;;;;;;;3.97;1.20;;;17.80;99.90;;;;;;5071991;28;20033;-56
2023/07/03 12:32:51;;;;;;;5.88;1.02;;;17.80;99.90;;;;;;5072226;28;20059;-55
2023/07/03 12:35:33;;;;;;;7.13;1.02;;;17.80;99.90;;;;;;5072146;28;20061;-55
2023/07/03 12:38:05;;;;;;;7.72;1.38;;;17.70;99.90;;;;;;5071865;28;20051;-55
2023/07/03 12:40:31;;;;;;;6.18;1.35;;;17.70;99.90;;;;;;5057991;28;20433;-56
2023/07/03 12:42:57;;;;;;;5.47;1.40;;;17.60;99.90;;;;;;5071787;28;20166;-55
2023/07/03 12:45:26;;;;;;;7.25;1.40;;;17.60;99.90;;;;;;5071827;28;20040;-55
2023/07/03 12:48:00;;;;;;;6.43;1.20;;;17.70;99.90;;;;;;5072013;28;20634;-55
2023/07/03 12:50:26;;;;;;;7.75;1.60;;;17.60;99.90;;;;;;5071468;28;20045;-56
2023/07/03 12:53:00;;;;;;;11.02;1.60;;;17.70;99.90;;;;;;5071910;28;20051;-56